createdAt,value
2023-02-04T00:00:00.556Z,2.30
2023-02-04T00:05:22.306Z,2.55
2023-02-04T00:10:44.034Z,2.15
2023-02-04T00:16:06.320Z,2.58
2023-02-04T00:21:28.097Z,2.25
2023-02-04T00:26:49.842Z,2.45
2023-02-04T00:32:11.623Z,1.70
2023-02-04T00:37:33.573Z,1.40
2023-02-04T00:42:55.473Z,1.40
2023-02-04T00:48:17.181Z,1.42
2023-02-04T00:53:38.911Z,1.42
2023-02-04T00:59:00.710Z,1.95
2023-02-04T01:04:23.392Z,2.13
2023-02-04T01:09:45.136Z,2.63
2023-02-04T01:15:07.274Z,2.97
2023-02-04T01:20:29.490Z,2.90
2023-02-04T01:25:51.557Z,2.75
2023-02-04T01:31:13.683Z,2.85
2023-02-04T01:36:35.497Z,3.10
2023-02-04T01:41:57.926Z,2.70
2023-02-04T01:47:20.649Z,2.10
2023-02-04T01:52:44.145Z,2.00
2023-02-04T01:58:05.938Z,1.50
2023-02-04T02:03:27.649Z,1.20
2023-02-04T02:08:49.412Z,1.15
2023-02-04T02:14:12.392Z,1.23
2023-02-04T02:19:37.933Z,1.35
2023-02-04T02:24:59.629Z,1.17
2023-02-04T02:30:21.695Z,1.50
2023-02-04T02:35:48.232Z,1.77
2023-02-04T02:41:10.984Z,1.50
2023-02-04T02:46:33.091Z,1.83
2023-02-04T02:51:54.865Z,2.00
2023-02-04T02:57:19.704Z,1.73
2023-02-04T03:02:41.891Z,1.67
2023-02-04T03:08:04.692Z,1.70
2023-02-04T03:13:26.441Z,1.80
2023-02-04T03:18:49.442Z,1.70
2023-02-04T03:24:11.585Z,1.60
2023-02-04T03:29:33.692Z,1.80
2023-02-04T03:34:55.383Z,1.80
2023-02-04T03:40:17.182Z,1.73
2023-02-04T03:45:45.245Z,2.30
2023-02-04T03:51:07.507Z,2.10
2023-02-04T03:56:29.251Z,1.80
2023-02-04T04:01:52.547Z,2.00
2023-02-04T04:07:14.328Z,1.90
2023-02-04T04:12:36.175Z,1.98
2023-02-04T04:17:57.943Z,2.08
2023-02-04T04:23:19.678Z,2.72
2023-02-04T04:28:41.370Z,1.90
2023-02-04T04:34:03.171Z,2.35
2023-02-04T04:39:24.927Z,2.33
2023-02-04T04:44:46.624Z,2.15
2023-02-04T04:50:08.762Z,2.20
2023-02-04T04:55:30.695Z,1.95
2023-02-04T05:00:52.414Z,1.80
2023-02-04T05:06:14.211Z,2.00
2023-02-04T05:11:35.919Z,1.98
2023-02-04T05:16:57.622Z,2.00
2023-02-04T05:22:19.321Z,2.50
2023-02-04T05:27:41.048Z,2.50
2023-02-04T05:33:02.778Z,2.22
2023-02-04T05:38:24.464Z,2.15
2023-02-04T05:43:46.185Z,2.78
2023-02-04T05:49:08.243Z,2.67
2023-02-04T05:54:29.985Z,3.60
2023-02-04T05:59:51.676Z,2.90
2023-02-04T06:05:13.485Z,3.13
2023-02-04T06:10:35.170Z,3.40
2023-02-04T06:15:56.905Z,3.30
2023-02-04T06:21:18.935Z,3.70
2023-02-04T06:26:40.704Z,3.80
2023-02-04T06:32:02.495Z,3.35
2023-02-04T06:37:24.513Z,4.13
2023-02-04T06:42:46.254Z,3.70
2023-02-04T06:48:07.972Z,4.28
2023-02-04T06:53:29.727Z,4.20
2023-02-04T06:58:51.442Z,4.00
2023-02-04T07:04:13.211Z,4.35
2023-02-04T07:09:34.946Z,4.07
2023-02-04T07:14:56.644Z,4.43
2023-02-04T07:20:18.533Z,4.30
2023-02-04T07:25:40.261Z,3.72
2023-02-04T07:31:02.137Z,4.50
2023-02-04T07:36:24.081Z,4.45
2023-02-04T07:41:45.895Z,4.30
2023-02-04T07:47:07.599Z,4.35
2023-02-04T07:52:29.289Z,4.30
2023-02-04T07:57:51.003Z,4.07
2023-02-04T08:03:12.713Z,3.88
2023-02-04T08:08:34.407Z,4.13
2023-02-04T08:13:56.112Z,3.67
2023-02-04T08:19:20.654Z,4.00
2023-02-04T08:24:42.469Z,3.97
2023-02-04T08:30:05.428Z,3.72
2023-02-04T08:35:27.220Z,3.63
2023-02-04T08:40:48.915Z,4.70
2023-02-04T08:46:10.767Z,4.30
2023-02-04T08:51:32.879Z,4.88
2023-02-04T08:56:54.594Z,4.38
2023-02-04T09:02:16.327Z,4.70
2023-02-04T09:07:38.105Z,5.50
2023-02-04T09:12:59.906Z,5.53
2023-02-04T09:18:22.582Z,4.70
2023-02-04T09:23:46.532Z,5.43
2023-02-04T09:29:08.255Z,5.30
2023-02-04T09:34:29.953Z,5.75
2023-02-04T09:39:51.678Z,5.20
2023-02-04T09:45:24.303Z,4.30
2023-02-04T09:50:46.049Z,4.23
2023-02-04T09:56:10.965Z,3.60
2023-02-04T10:01:33.024Z,3.20
2023-02-04T10:06:58.530Z,3.85
2023-02-04T10:12:21.072Z,3.80
2023-02-04T10:17:43.275Z,3.78
2023-02-04T10:23:12.457Z,3.78
2023-02-04T10:28:35.431Z,3.80
2023-02-04T10:34:05.343Z,4.43
2023-02-04T10:39:29.104Z,3.65
2023-02-04T10:44:51.090Z,3.60
2023-02-04T10:50:21.262Z,3.67
2023-02-04T10:55:47.444Z,4.07
2023-02-04T11:01:13.930Z,3.10
2023-02-04T11:06:35.665Z,3.72
2023-02-04T11:11:58.177Z,3.08
2023-02-04T11:17:21.404Z,2.72
2023-02-04T11:22:46.910Z,4.07
2023-02-04T11:28:40.738Z,3.40
2023-02-04T11:34:21.550Z,3.90
2023-02-04T11:39:46.965Z,4.47
2023-02-04T11:45:15.747Z,3.70
2023-02-04T11:50:41.576Z,4.20
2023-02-04T11:56:03.483Z,4.15
2023-02-04T12:01:33.712Z,3.45
2023-02-04T12:07:01.048Z,3.72
2023-02-04T12:12:29.215Z,4.60
2023-02-04T12:18:02.667Z,3.50
2023-02-04T12:23:25.679Z,3.22
2023-02-04T12:28:47.374Z,3.53
2023-02-04T12:34:09.081Z,3.10
2023-02-04T12:39:32.001Z,3.90
2023-02-04T12:44:53.702Z,4.72
2023-02-04T12:50:22.558Z,3.05
2023-02-04T12:55:44.311Z,9.48
2023-02-04T13:01:06.085Z,3.97
2023-02-04T13:06:27.822Z,3.65
2023-02-04T13:11:49.530Z,4.10
2023-02-04T13:17:11.325Z,3.40
2023-02-04T13:22:33.192Z,3.57
2023-02-04T13:27:55.007Z,3.25
2023-02-04T13:33:16.730Z,3.35
2023-02-04T13:38:38.435Z,3.80
2023-02-04T13:44:00.157Z,3.75
2023-02-04T13:49:21.914Z,4.05
2023-02-04T13:54:44.285Z,5.63
2023-02-04T14:00:07.451Z,4.33
2023-02-04T14:05:29.193Z,3.90
2023-02-04T14:10:50.928Z,5.75
2023-02-04T14:16:12.695Z,4.28
2023-02-04T14:21:34.437Z,3.75
2023-02-04T14:26:56.163Z,4.25
2023-02-04T14:32:18.018Z,4.00
2023-02-04T14:37:39.752Z,4.80
2023-02-04T14:43:01.498Z,4.32
2023-02-04T14:48:23.260Z,4.72
2023-02-04T14:53:48.305Z,3.05
2023-02-04T14:59:10.996Z,3.40
2023-02-04T15:04:33.192Z,3.42
2023-02-04T15:09:54.962Z,3.30
2023-02-04T15:15:16.868Z,3.60
2023-02-04T15:20:38.566Z,3.33
2023-02-04T15:26:00.274Z,2.97
2023-02-04T15:31:23.398Z,2.77
2023-02-04T15:36:45.145Z,2.38
2023-02-04T15:42:06.951Z,2.57
2023-02-04T15:47:28.796Z,2.78
2023-02-04T15:52:50.579Z,2.97
2023-02-04T15:58:12.808Z,3.47
2023-02-04T16:03:34.508Z,3.78
2023-02-04T16:08:56.239Z,3.80
2023-02-04T16:14:17.934Z,2.78
2023-02-04T16:19:39.678Z,3.38
2023-02-04T16:25:01.418Z,3.45
2023-02-04T16:30:23.135Z,3.20
2023-02-04T16:36:04.552Z,3.40
2023-02-04T16:41:26.250Z,3.38
2023-02-04T16:46:49.492Z,3.70
2023-02-04T16:52:11.279Z,6.22
2023-02-04T16:57:33.289Z,5.45
2023-02-04T17:02:55.007Z,4.30
2023-02-04T17:08:17.406Z,4.30
2023-02-04T17:13:39.321Z,6.32
2023-02-04T17:19:01.694Z,7.60
2023-02-04T17:24:24.495Z,6.50
2023-02-04T17:29:46.194Z,8.15
2023-02-04T17:35:08.070Z,7.97
2023-02-04T17:40:30.252Z,8.03
2023-02-04T17:45:52.053Z,5.40
2023-02-04T17:51:13.929Z,4.90
2023-02-04T17:56:35.635Z,5.68
2023-02-04T18:01:57.555Z,9.73
2023-02-04T18:07:19.548Z,7.53
2023-02-04T18:12:41.315Z,5.97
2023-02-04T18:18:18.268Z,4.93
2023-02-04T18:23:40.202Z,5.70
2023-02-04T18:29:18.222Z,5.78
2023-02-04T18:34:43.780Z,4.53
2023-02-04T18:40:08.578Z,5.67
2023-02-04T18:45:32.402Z,11.47
2023-02-04T18:50:54.874Z,11.33
2023-02-04T18:56:18.157Z,7.57
2023-02-04T19:01:39.929Z,7.23
2023-02-04T19:07:01.736Z,7.43
2023-02-04T19:12:25.103Z,8.90
2023-02-04T19:17:46.796Z,13.77
2023-02-04T19:23:15.707Z,9.50
2023-02-04T19:28:37.853Z,7.80
2023-02-04T19:34:12.598Z,6.50
2023-02-04T19:39:40.228Z,6.50
2023-02-04T19:45:23.483Z,5.67
2023-02-04T19:50:45.430Z,5.93
2023-02-04T19:56:39.463Z,6.37
2023-02-04T20:02:07.025Z,6.43
2023-02-04T20:07:32.207Z,6.40
2023-02-04T20:13:12.286Z,6.67
2023-02-04T20:18:33.993Z,5.90
2023-02-04T20:23:55.704Z,5.97
2023-02-04T20:29:22.604Z,5.80
2023-02-04T20:34:44.358Z,6.43
2023-02-04T20:40:35.022Z,6.50
2023-02-04T20:46:00.132Z,4.57
2023-02-04T20:51:24.003Z,7.00
2023-02-04T20:56:45.850Z,6.10
2023-02-04T21:02:17.384Z,6.37
2023-02-04T21:07:39.075Z,7.47
2023-02-04T21:13:01.508Z,7.67
2023-02-04T21:18:23.355Z,8.37
2023-02-04T21:23:45.059Z,9.23
2023-02-04T21:29:06.782Z,7.77
2023-02-04T21:34:28.474Z,7.93
2023-02-04T21:39:50.177Z,8.67
2023-02-04T21:45:11.893Z,7.97
2023-02-04T21:50:34.336Z,8.53
2023-02-04T21:55:57.876Z,6.93
2023-02-04T22:01:20.832Z,6.90
2023-02-04T22:06:42.551Z,7.67
2023-02-04T22:12:04.466Z,7.93
2023-02-04T22:17:26.348Z,7.47
2023-02-04T22:22:48.614Z,8.23
2023-02-04T22:28:10.348Z,8.90
2023-02-04T22:33:32.127Z,9.80
2023-02-04T22:38:53.845Z,10.70
2023-02-04T22:44:15.563Z,9.73
2023-02-04T22:49:37.404Z,10.93
2023-02-04T22:54:59.111Z,10.77
2023-02-04T23:00:20.975Z,11.33
2023-02-04T23:05:45.097Z,11.53
2023-02-04T23:11:06.798Z,13.43
2023-02-04T23:16:28.602Z,12.60
2023-02-04T23:21:50.311Z,12.20
2023-02-04T23:27:12.649Z,11.57
2023-02-04T23:32:34.469Z,10.10
2023-02-04T23:37:56.183Z,10.30
2023-02-04T23:43:17.967Z,9.13
2023-02-04T23:48:39.692Z,9.37
2023-02-04T23:54:01.470Z,9.90
2023-02-04T23:59:23.774Z,9.07
